Time,TemperatureF,DewpointF,PressureIn,WindDirection,WindDirectionDegrees,WindSpeedMPH,WindSpeedGustMPH,Humidity,HourlyPrecipIn,Conditions,Clouds,dailyrainin,SoftwareType,DateUTC
2015-09-02 00:06:00,68.9,68.6,30.03,South,180,0.0,-999.0,99,-99.99,,,0.00,Acu-Link.com,2015-09-02 04:06:00,
2015-09-02 00:21:00,68.4,68.1,30.03,West,270,0.0,-999.0,99,-99.99,,,0.00,Acu-Link.com,2015-09-02 04:21:00,
2015-09-02 00:36:00,68.4,68.1,30.03,WNW,292,0.0,-999.0,99,-99.99,,,0.00,Acu-Link.com,2015-09-02 04:36:00,
2015-09-02 00:51:00,68.2,67.9,30.02,South,180,0.0,-999.0,99,-99.99,,,0.00,Acu-Link.com,2015-09-02 04:51:00,
2015-09-02 01:06:00,67.8,67.5,30.02,South,180,0.0,-999.0,99,-99.99,,,0.00,Acu-Link.com,2015-09-02 05:06:00,
2015-09-02 01:21:00,67.5,67.2,30.03,South,180,0.0,-999.0,99,-99.99,,,0.00,Acu-Link.com,2015-09-02 05:21:00,
2015-09-02 01:36:00,67.6,67.3,30.03,South,180,0.0,-999.0,99,-99.99,,,0.00,Acu-Link.com,2015-09-02 05:36:00,
2015-09-02 01:52:00,67.3,67.0,30.02,South,180,0.0,-999.0,99,-99.99,,,0.00,Acu-Link.com,2015-09-02 05:52:00,
2015-09-02 02:07:00,67.1,66.8,30.03,South,180,0.0,-999.0,99,-99.99,,,0.00,Acu-Link.com,2015-09-02 06:07:00,
2015-09-02 02:22:00,67.1,66.8,30.02,South,180,0.0,-999.0,99,-99.99,,,0.00,Acu-Link.com,2015-09-02 06:22:00,
2015-09-02 02:37:00,66.7,66.4,30.01,South,180,0.0,-999.0,99,-99.99,,,0.00,Acu-Link.com,2015-09-02 06:37:00,
2015-09-02 02:52:00,66.6,66.3,30.01,South,180,0.0,-999.0,99,-99.99,,,0.00,Acu-Link.com,2015-09-02 06:52:00,
2015-09-02 03:08:00,66.6,66.3,30.01,South,180,0.0,-999.0,99,-99.99,,,0.00,Acu-Link.com,2015-09-02 07:08:00,
2015-09-02 03:23:00,66.9,66.6,30.01,South,180,0.0,-999.0,99,-99.99,,,0.00,Acu-Link.com,2015-09-02 07:23:00,
2015-09-02 03:38:00,66.4,66.1,30.01,South,180,0.0,-999.0,99,-99.99,,,0.00,Acu-Link.com,2015-09-02 07:38:00,
2015-09-02 03:53:00,66.2,65.9,30.00,South,180,0.0,-999.0,99,-99.99,,,0.00,Acu-Link.com,2015-09-02 07:53:00,
2015-09-02 04:08:00,66.2,65.9,30.01,South,180,0.0,-999.0,99,-99.99,,,0.00,Acu-Link.com,2015-09-02 08:08:00,
2015-09-02 04:23:00,65.8,65.5,30.01,South,180,0.0,-999.0,99,-99.99,,,0.00,Acu-Link.com,2015-09-02 08:23:00,
2015-09-02 04:38:00,65.8,65.5,30.01,South,180,0.0,-999.0,99,-99.99,,,0.00,Acu-Link.com,2015-09-02 08:38:00,
2015-09-02 04:54:00,65.7,65.4,30.01,South,180,0.0,-999.0,99,-99.99,,,0.00,Acu-Link.com,2015-09-02 08:54:00,
2015-09-02 05:09:00,65.7,65.4,30.01,South,180,0.0,-999.0,99,-99.99,,,0.00,Acu-Link.com,2015-09-02 09:09:00,
2015-09-02 05:24:00,65.8,65.5,30.01,South,180,0.0,-999.0,99,-99.99,,,0.00,Acu-Link.com,2015-09-02 09:24:00,
2015-09-02 05:39:00,65.8,65.5,30.02,ENE,67,0.0,-999.0,99,-99.99,,,0.00,Acu-Link.com,2015-09-02 09:39:00,
2015-09-02 05:54:00,65.7,65.4,30.01,NW,315,0.0,-999.0,99,-99.99,,,0.00,Acu-Link.com,2015-09-02 09:54:00,
2015-09-02 06:09:00,65.7,65.4,30.02,WSW,247,0.0,-999.0,99,-99.99,,,0.00,Acu-Link.com,2015-09-02 10:09:00,
2015-09-02 06:24:00,65.5,65.2,30.03,SW,225,0.0,-999.0,99,-99.99,,,0.00,Acu-Link.com,2015-09-02 10:24:00,
2015-09-02 06:39:00,65.7,65.4,30.03,SSE,157,0.0,-999.0,99,-99.99,,,0.00,Acu-Link.com,2015-09-02 10:39:00,
2015-09-02 06:54:00,65.5,65.2,30.03,SSE,157,0.0,-999.0,99,-99.99,,,0.00,Acu-Link.com,2015-09-02 10:54:00,
2015-09-02 07:10:00,65.8,65.5,30.03,South,180,0.0,-999.0,99,-99.99,,,0.00,Acu-Link.com,2015-09-02 11:10:00,
2015-09-02 07:25:00,65.7,65.4,30.04,SSW,202,0.0,-999.0,99,-99.99,,,0.00,Acu-Link.com,2015-09-02 11:25:00,
2015-09-02 07:40:00,65.8,65.5,30.04,South,180,0.0,-999.0,99,-99.99,,,0.00,Acu-Link.com,2015-09-02 11:40:00,
2015-09-02 07:55:00,67.1,66.8,30.05,SSE,157,0.0,-999.0,99,-99.99,,,0.00,Acu-Link.com,2015-09-02 11:55:00,
2015-09-02 08:10:00,67.8,67.5,30.05,WSW,247,0.0,-999.0,99,-99.99,,,0.00,Acu-Link.com,2015-09-02 12:10:00,
2015-09-02 08:25:00,68.2,67.9,30.06,SSW,202,0.0,-999.0,99,-99.99,,,0.00,Acu-Link.com,2015-09-02 12:25:00,
2015-09-02 08:40:00,69.3,69.0,30.05,South,180,1.7,-999.0,99,-99.99,,,0.00,Acu-Link.com,2015-09-02 12:40:00,
2015-09-02 08:55:00,70.5,70.2,30.05,WSW,247,3.2,-999.0,99,-99.99,,,0.00,Acu-Link.com,2015-09-02 12:55:00,
2015-09-02 09:11:00,71.1,70.8,30.05,ESE,112,1.1,-999.0,99,-99.99,,,0.00,Acu-Link.com,2015-09-02 13:11:00,
2015-09-02 09:26:00,71.8,71.5,30.05,SSW,202,3.2,-999.0,99,-99.99,,,0.00,Acu-Link.com,2015-09-02 13:26:00,
2015-09-02 09:41:00,73.4,73.1,30.05,SSW,202,1.1,-999.0,99,-99.99,,,0.00,Acu-Link.com,2015-09-02 13:41:00,
2015-09-02 09:56:00,75.4,75.1,30.05,WSW,247,2.7,-999.0,99,-99.99,,,0.00,Acu-Link.com,2015-09-02 13:56:00,
2015-09-02 10:12:00,79.7,77.5,30.06,West,270,3.7,-999.0,93,-99.99,,,0.00,Acu-Link.com,2015-09-02 14:12:00,
2015-09-02 10:27:00,81.5,77.6,30.05,SW,225,1.1,-999.0,88,-99.99,,,0.00,Acu-Link.com,2015-09-02 14:27:00,
2015-09-02 10:42:00,83.5,78.1,30.05,NW,315,2.7,-999.0,84,-99.99,,,0.00,Acu-Link.com,2015-09-02 14:42:00,
2015-09-02 10:57:00,86.0,77.9,30.05,SW,225,2.7,-999.0,77,-99.99,,,0.00,Acu-Link.com,2015-09-02 14:57:00,
2015-09-02 11:12:00,87.6,78.3,30.05,WSW,247,3.7,-999.0,74,-99.99,,,0.00,Acu-Link.com,2015-09-02 15:12:00,
2015-09-02 11:27:00,88.5,77.9,30.05,SW,225,2.7,-999.0,71,-99.99,,,0.00,Acu-Link.com,2015-09-02 15:27:00,
2015-09-02 11:43:00,89.4,74.6,30.05,SSW,202,3.2,-999.0,62,-99.99,,,0.00,Acu-Link.com,2015-09-02 15:43:00,
2015-09-02 11:58:00,90.5,74.2,30.05,West,270,3.2,-999.0,59,-99.99,,,0.00,Acu-Link.com,2015-09-02 15:58:00,
2015-09-02 12:13:00,91.2,73.8,30.03,South,180,3.7,-999.0,57,-99.99,,,0.00,Acu-Link.com,2015-09-02 16:13:00,
2015-09-02 12:28:00,91.6,73.1,30.03,West,270,3.2,-999.0,55,-99.99,,,0.00,Acu-Link.com,2015-09-02 16:28:00,
2015-09-02 12:44:00,92.5,73.4,30.02,NNW,337,6.8,-999.0,54,-99.99,,,0.00,Acu-Link.com,2015-09-02 16:44:00,
2015-09-02 12:59:00,92.3,72.7,30.01,SSW,202,3.2,-999.0,53,-99.99,,,0.00,Acu-Link.com,2015-09-02 16:59:00,
2015-09-02 13:14:00,95.0,72.2,30.01,NNE,22,4.7,-999.0,48,-99.99,,,0.00,Acu-Link.com,2015-09-02 17:14:00,
2015-09-02 13:44:00,91.2,72.7,30.00,SSW,202,3.7,-999.0,55,-99.99,,,0.00,Acu-Link.com,2015-09-02 17:44:00,